createdAt,value
2018-11-06T00:00:00.740Z,130.73
2018-11-06T00:02:29.478Z,134.90
2018-11-06T00:05:03.443Z,127.60
2018-11-06T00:07:32.091Z,146.63
2018-11-06T00:10:00.786Z,148.27
2018-11-06T00:12:29.607Z,147.50
2018-11-06T00:15:00.309Z,154.27
2018-11-06T00:17:29.217Z,162.70
2018-11-06T00:19:57.948Z,164.43
2018-11-06T00:22:26.618Z,160.57
2018-11-06T00:24:55.328Z,160.47
2018-11-06T00:27:24.156Z,146.67
2018-11-06T00:29:53.072Z,165.53
2018-11-06T00:32:21.843Z,147.57
2018-11-06T00:34:50.734Z,138.47
2018-11-06T00:37:19.393Z,135.03
2018-11-06T00:39:48.219Z,148.37
2018-11-06T00:42:16.888Z,138.30
2018-11-06T00:44:45.674Z,156.27
2018-11-06T00:47:14.469Z,148.30
2018-11-06T00:49:43.330Z,150.93
2018-11-06T00:52:12.064Z,162.80
2018-11-06T00:54:40.759Z,145.93
2018-11-06T00:57:09.641Z,157.77
2018-11-06T00:59:38.421Z,133.80
2018-11-06T01:02:07.252Z,111.93
2018-11-06T01:04:35.995Z,102.00
2018-11-06T01:07:05.064Z,124.23
2018-11-06T01:09:33.723Z,126.23
2018-11-06T01:12:02.420Z,128.93
2018-11-06T01:14:31.227Z,122.47
2018-11-06T01:17:00.006Z,104.13
2018-11-06T01:19:28.838Z,107.63
2018-11-06T01:21:57.588Z,135.97
2018-11-06T01:24:26.392Z,129.37
2018-11-06T01:26:55.033Z,126.83
2018-11-06T01:29:23.739Z,135.07
2018-11-06T01:31:52.541Z,143.10
2018-11-06T01:34:21.182Z,138.30
2018-11-06T01:36:49.924Z,132.53
2018-11-06T01:39:18.625Z,122.43
2018-11-06T01:41:47.337Z,102.77
2018-11-06T01:44:17.491Z,110.20
2018-11-06T01:46:47.060Z,123.73
2018-11-06T01:49:16.024Z,131.57
2018-11-06T01:51:45.015Z,127.07
2018-11-06T01:54:13.681Z,123.23
2018-11-06T01:56:42.537Z,136.30
2018-11-06T01:59:11.367Z,155.40
2018-11-06T02:01:40.076Z,132.67
2018-11-06T02:04:08.849Z,133.20
2018-11-06T02:06:37.716Z,134.10
2018-11-06T02:09:08.680Z,119.50
2018-11-06T02:11:37.383Z,115.20
2018-11-06T02:14:07.194Z,103.47
2018-11-06T02:16:35.924Z,130.30
2018-11-06T02:19:04.869Z,179.47
2018-11-06T02:21:33.591Z,125.37
2018-11-06T02:24:02.710Z,104.83
2018-11-06T02:26:32.400Z,159.93
2018-11-06T02:29:03.236Z,143.33
2018-11-06T02:31:31.900Z,210.23
2018-11-06T02:35:04.360Z,127.40
2018-11-06T02:37:32.979Z,114.97
2018-11-06T02:40:01.780Z,121.03
2018-11-06T02:42:30.439Z,100.20
2018-11-06T02:44:59.273Z,133.67
2018-11-06T02:47:27.921Z,123.60
2018-11-06T02:49:56.717Z,115.03
2018-11-06T02:52:25.416Z,255.80
2018-11-06T02:54:54.223Z,197.10
2018-11-06T02:57:22.991Z,97.70
2018-11-06T02:59:51.652Z,112.63
2018-11-06T03:02:20.344Z,102.73
2018-11-06T03:04:49.199Z,137.00
2018-11-06T03:07:17.903Z,330.37
2018-11-06T03:09:46.617Z,183.83
2018-11-06T03:12:15.333Z,242.70
2018-11-06T03:14:44.087Z,553.80
2018-11-06T03:17:12.796Z,431.53
2018-11-06T03:19:41.542Z,230.90
2018-11-06T03:22:10.348Z,182.10
2018-11-06T03:24:39.060Z,138.90
2018-11-06T03:27:07.777Z,139.40
2018-11-06T03:29:36.517Z,137.90
2018-11-06T03:32:05.768Z,129.40
2018-11-06T03:34:34.560Z,129.87
2018-11-06T03:37:03.257Z,134.00
2018-11-06T03:39:31.969Z,126.90
2018-11-06T03:42:00.668Z,221.70
2018-11-06T03:44:29.437Z,213.63
2018-11-06T03:46:58.245Z,107.00
2018-11-06T03:49:26.936Z,106.07
2018-11-06T03:51:55.687Z,118.77
2018-11-06T03:54:24.483Z,190.27
2018-11-06T03:56:53.274Z,298.77
2018-11-06T03:59:22.055Z,412.63
2018-11-06T04:01:50.780Z,307.17
2018-11-06T04:04:19.407Z,278.47
2018-11-06T04:06:48.218Z,254.30
2018-11-06T04:09:16.894Z,303.47
2018-11-06T04:11:45.553Z,174.80
2018-11-06T04:14:14.368Z,175.20
2018-11-06T04:16:43.064Z,153.10
2018-11-06T04:19:11.844Z,144.73
2018-11-06T04:21:41.293Z,104.67
2018-11-06T04:24:12.487Z,172.43
2018-11-06T04:26:41.162Z,101.93
2018-11-06T04:29:10.491Z,121.10
2018-11-06T04:31:39.944Z,94.67
2018-11-06T04:34:09.499Z,105.30
2018-11-06T04:36:38.268Z,108.67
2018-11-06T04:39:08.663Z,163.23
2018-11-06T04:41:37.511Z,273.30
2018-11-06T04:44:06.984Z,111.27
2018-11-06T04:46:35.699Z,217.20
2018-11-06T04:49:04.882Z,224.10
2018-11-06T04:51:33.579Z,175.93
2018-11-06T04:54:02.858Z,92.20
2018-11-06T04:56:32.152Z,142.03
2018-11-06T04:59:00.865Z,114.97
2018-11-06T05:01:29.663Z,213.37
2018-11-06T05:03:58.269Z,232.83
2018-11-06T05:06:26.996Z,306.53
2018-11-06T05:08:55.991Z,93.30
2018-11-06T05:11:24.886Z,114.20
2018-11-06T05:13:53.715Z,113.27
2018-11-06T05:16:22.460Z,103.43
2018-11-06T05:18:51.100Z,101.53
2018-11-06T05:21:19.699Z,165.37
2018-11-06T05:23:48.441Z,112.17
2018-11-06T05:26:17.306Z,225.50
2018-11-06T05:28:46.007Z,205.53
2018-11-06T05:31:14.656Z,140.40
2018-11-06T05:33:43.580Z,154.03
2018-11-06T05:36:12.196Z,121.63
2018-11-06T05:38:40.784Z,89.80
2018-11-06T05:41:09.697Z,111.50
2018-11-06T05:43:39.034Z,110.07
2018-11-06T05:46:07.794Z,102.93
2018-11-06T05:48:36.582Z,97.77
2018-11-06T05:51:05.768Z,143.77
2018-11-06T05:53:34.660Z,207.27
2018-11-06T05:56:03.456Z,148.37
2018-11-06T05:58:32.128Z,141.90
2018-11-06T06:01:00.967Z,123.43
2018-11-06T06:03:29.592Z,117.37
2018-11-06T06:05:58.321Z,115.13
2018-11-06T06:08:27.292Z,100.20
2018-11-06T06:11:06.785Z,104.67
2018-11-06T06:13:35.597Z,107.07
2018-11-06T06:16:04.480Z,102.77
2018-11-06T06:18:33.316Z,103.50
2018-11-06T06:21:02.098Z,117.77
2018-11-06T06:23:30.875Z,106.90
2018-11-06T06:25:59.657Z,206.97
2018-11-06T06:28:28.377Z,114.53
2018-11-06T06:30:57.079Z,107.77
2018-11-06T06:33:25.808Z,98.63
2018-11-06T06:35:54.492Z,91.70
2018-11-06T06:38:23.199Z,147.83
2018-11-06T06:40:52.151Z,117.57
2018-11-06T06:43:20.840Z,114.20
2018-11-06T06:45:49.539Z,161.77
2018-11-06T06:48:18.436Z,100.23
2018-11-06T06:50:47.139Z,88.83
2018-11-06T06:53:15.813Z,78.77
2018-11-06T07:02:44.447Z,95.20
2018-11-06T07:05:14.552Z,100.13
2018-11-06T07:07:44.160Z,97.87
2018-11-06T07:10:14.753Z,94.17
2018-11-06T07:12:44.516Z,147.90
2018-11-06T07:15:14.532Z,103.37
2018-11-06T07:17:44.122Z,106.00
2018-11-06T07:20:15.367Z,109.30
2018-11-06T07:22:44.248Z,93.30
2018-11-06T07:25:13.796Z,82.17
2018-11-06T07:27:43.484Z,81.93
2018-11-06T07:30:17.584Z,93.07
2018-11-06T07:32:46.742Z,107.67
2018-11-06T07:35:16.428Z,90.13
2018-11-06T07:37:45.700Z,104.30
2018-11-06T07:40:15.943Z,101.43
2018-11-06T07:42:44.707Z,86.93
2018-11-06T07:45:14.599Z,83.63
2018-11-06T07:47:43.596Z,83.17
2018-11-06T07:50:13.086Z,80.20
2018-11-06T07:52:41.992Z,81.57
2018-11-06T07:55:13.015Z,90.33
2018-11-06T07:57:41.707Z,84.27
2018-11-06T08:00:18.904Z,80.63
2018-11-06T08:02:48.313Z,80.40
2018-11-06T08:05:17.296Z,84.23
2018-11-06T08:07:47.117Z,87.67
2018-11-06T08:10:15.916Z,83.13
2018-11-06T08:12:46.133Z,78.53
2018-11-06T08:15:15.051Z,78.20
2018-11-06T08:17:44.874Z,71.87
2018-11-06T08:20:14.019Z,68.50
2018-11-06T08:22:42.789Z,63.83
2018-11-06T08:26:35.928Z,74.37
2018-11-06T08:29:04.859Z,72.03
2018-11-06T08:31:33.810Z,70.87
2018-11-06T08:34:02.427Z,69.47
2018-11-06T08:36:31.281Z,69.50
2018-11-06T08:39:00.028Z,62.60
2018-11-06T08:41:28.678Z,69.57
2018-11-06T08:43:57.404Z,62.30
2018-11-06T08:46:26.059Z,65.47
2018-11-06T08:48:54.849Z,73.37
2018-11-06T08:51:23.553Z,68.33
2018-11-06T08:53:52.325Z,62.40
2018-11-06T08:56:21.141Z,62.90
2018-11-06T08:58:49.954Z,62.70
2018-11-06T09:01:18.627Z,76.70
2018-11-06T09:03:47.339Z,57.23
2018-11-06T09:06:16.107Z,63.30
2018-11-06T09:08:45.088Z,58.63
2018-11-06T09:11:13.944Z,66.07
2018-11-06T09:13:42.587Z,65.83
2018-11-06T09:16:11.432Z,70.43
2018-11-06T09:18:40.198Z,62.47
2018-11-06T09:21:08.961Z,66.63
2018-11-06T09:23:37.632Z,63.83
2018-11-06T09:26:06.455Z,58.10
2018-11-06T09:28:35.195Z,57.17
2018-11-06T09:31:04.277Z,56.73
2018-11-06T09:33:32.893Z,67.80
2018-11-06T09:36:01.580Z,59.30
2018-11-06T09:38:30.388Z,61.53
2018-11-06T09:40:59.059Z,53.27
2018-11-06T09:43:27.963Z,50.20
2018-11-06T09:45:56.631Z,57.83
2018-11-06T09:48:25.647Z,48.73
2018-11-06T09:50:54.297Z,61.10
2018-11-06T09:53:22.984Z,57.97
2018-11-06T09:55:51.822Z,51.63
2018-11-06T09:58:20.961Z,58.20
2018-11-06T10:00:49.687Z,52.43
2018-11-06T10:03:18.335Z,55.53
2018-11-06T10:05:47.044Z,53.17
2018-11-06T10:08:16.161Z,51.00
2018-11-06T10:10:45.056Z,47.50
2018-11-06T10:13:13.803Z,63.43
2018-11-06T10:15:42.563Z,51.73
2018-11-06T10:18:11.167Z,52.60
2018-11-06T10:20:39.997Z,46.20
2018-11-06T10:23:08.664Z,51.03
2018-11-06T10:25:37.456Z,47.37
2018-11-06T10:28:06.267Z,51.30
2018-11-06T10:30:35.095Z,52.27
2018-11-06T10:33:03.816Z,47.43
2018-11-06T10:35:32.506Z,45.77
2018-11-06T10:38:01.220Z,45.23
2018-11-06T10:40:29.988Z,44.40
2018-11-06T10:42:58.660Z,49.37
2018-11-06T10:45:27.333Z,51.90
2018-11-06T10:47:56.128Z,43.63
2018-11-06T10:50:24.724Z,47.57
2018-11-06T10:52:53.395Z,47.88
2018-11-06T10:55:22.409Z,47.75
2018-11-06T10:57:51.003Z,41.17
2018-11-06T11:00:24.984Z,47.27
2018-11-06T11:02:58.940Z,45.93
2018-11-06T11:05:28.902Z,49.93
2018-11-06T11:07:57.691Z,51.87
2018-11-06T11:10:26.398Z,48.60
2018-11-06T11:12:55.039Z,48.23
2018-11-06T11:15:23.957Z,52.20
2018-11-06T11:17:52.675Z,44.67
2018-11-06T11:20:21.407Z,44.17
2018-11-06T11:22:50.056Z,45.27
2018-11-06T11:25:18.683Z,40.87
2018-11-06T11:27:47.600Z,44.33
2018-11-06T11:30:17.060Z,44.73
2018-11-06T11:32:47.204Z,47.13
2018-11-06T11:35:16.111Z,54.53
2018-11-06T11:37:45.078Z,45.30
2018-11-06T11:40:14.913Z,45.70
2018-11-06T11:42:43.895Z,47.90
2018-11-06T11:45:13.617Z,44.10
2018-11-06T11:47:42.331Z,42.03
2018-11-06T11:50:12.521Z,41.83
2018-11-06T11:52:41.414Z,45.23
2018-11-06T11:55:10.303Z,46.13
2018-11-06T11:57:39.743Z,41.23
2018-11-06T12:00:10.946Z,45.20
2018-11-06T12:02:39.620Z,45.65
2018-11-06T12:05:09.017Z,44.57
2018-11-06T12:07:37.963Z,48.13
2018-11-06T12:10:08.024Z,44.97
2018-11-06T12:12:36.759Z,43.97
2018-11-06T12:15:07.719Z,38.53
2018-11-06T12:17:36.357Z,39.30
2018-11-06T12:20:05.221Z,44.13
2018-11-06T12:22:33.924Z,88.13
2018-11-06T12:25:03.083Z,45.37
2018-11-06T12:27:31.569Z,38.53
2018-11-06T12:30:00.373Z,42.67
2018-11-06T12:32:29.204Z,39.13
2018-11-06T12:34:57.857Z,39.80
2018-11-06T12:37:26.496Z,34.50
2018-11-06T12:39:55.322Z,37.93
2018-11-06T12:42:24.034Z,39.00
2018-11-06T12:44:52.906Z,38.97
2018-11-06T12:47:21.679Z,42.07
2018-11-06T12:49:50.349Z,39.20
2018-11-06T12:52:19.168Z,42.10
2018-11-06T12:54:47.944Z,42.10
2018-11-06T12:57:16.778Z,42.77
2018-11-06T12:59:45.530Z,51.93
2018-11-06T13:02:14.236Z,47.67
2018-11-06T13:04:43.089Z,40.40
2018-11-06T13:07:11.797Z,39.55
2018-11-06T13:09:40.453Z,44.25
2018-11-06T13:12:09.253Z,42.43
2018-11-06T13:14:37.952Z,40.30
2018-11-06T13:17:06.983Z,39.43
2018-11-06T13:19:35.722Z,41.05
2018-11-06T13:22:05.125Z,39.97
2018-11-06T13:24:33.783Z,36.10
2018-11-06T13:27:02.666Z,39.03
2018-11-06T13:29:31.413Z,34.93
2018-11-06T13:32:00.051Z,35.90
2018-11-06T13:34:28.888Z,38.77
2018-11-06T13:36:57.491Z,40.30
2018-11-06T13:39:26.099Z,38.53
2018-11-06T13:41:55.015Z,45.13
2018-11-06T13:44:24.061Z,39.23
2018-11-06T13:46:52.404Z,41.03
2018-11-06T13:49:21.152Z,33.45
2018-11-06T13:51:49.828Z,37.63
2018-11-06T13:54:18.647Z,47.60
2018-11-06T13:56:47.316Z,31.87
2018-11-06T13:59:16.038Z,39.87
2018-11-06T14:01:44.772Z,41.18
2018-11-06T14:04:13.493Z,40.92
2018-11-06T14:06:42.183Z,42.87
2018-11-06T14:09:11.633Z,48.17
2018-11-06T14:11:40.773Z,45.73
2018-11-06T14:14:09.554Z,39.93
2018-11-06T14:16:38.405Z,45.90
2018-11-06T14:19:07.137Z,43.40
2018-11-06T14:21:36.015Z,45.80
2018-11-06T14:24:04.803Z,41.50
2018-11-06T14:26:33.585Z,47.33
2018-11-06T14:29:02.390Z,42.30
2018-11-06T14:31:31.074Z,45.00
2018-11-06T14:33:59.808Z,39.93
2018-11-06T14:36:28.528Z,39.43
2018-11-06T14:38:57.216Z,45.20
2018-11-06T14:41:25.993Z,36.53
2018-11-06T14:43:54.794Z,35.10
2018-11-06T14:46:23.440Z,40.07
2018-11-06T14:48:52.124Z,44.20
2018-11-06T14:51:20.845Z,48.57
2018-11-06T14:53:49.644Z,51.40
2018-11-06T14:56:18.299Z,41.80
2018-11-06T14:58:47.210Z,45.17
2018-11-06T15:01:15.880Z,40.23
2018-11-06T15:03:44.692Z,44.80
2018-11-06T15:06:13.473Z,42.03
2018-11-06T15:08:42.152Z,54.73
2018-11-06T15:11:10.821Z,54.20
2018-11-06T15:13:39.834Z,50.30
2018-11-06T15:16:08.505Z,44.40
2018-11-06T15:18:37.164Z,52.70
2018-11-06T15:21:06.511Z,46.47
2018-11-06T15:23:35.177Z,60.63
2018-11-06T15:26:04.091Z,53.37
2018-11-06T15:28:32.755Z,48.13
2018-11-06T15:31:01.416Z,45.67
2018-11-06T15:33:30.298Z,46.83
2018-11-06T15:35:59.119Z,48.27
2018-11-06T15:38:27.912Z,50.67
2018-11-06T15:40:56.738Z,50.97
2018-11-06T15:43:25.592Z,62.40
2018-11-06T15:45:54.251Z,56.10
2018-11-06T15:48:22.930Z,55.17
2018-11-06T15:50:51.747Z,55.03
2018-11-06T15:53:20.631Z,57.60
2018-11-06T15:55:49.312Z,56.57
2018-11-06T15:58:18.035Z,53.87
2018-11-06T16:00:46.823Z,49.27
2018-11-06T16:03:15.689Z,59.37
2018-11-06T16:05:44.360Z,54.97
2018-11-06T16:08:13.086Z,52.77
2018-11-06T16:10:41.772Z,55.07
2018-11-06T16:13:10.525Z,66.70
2018-11-06T16:15:39.257Z,62.70
2018-11-06T16:18:07.876Z,58.80
2018-11-06T16:20:36.676Z,59.17
2018-11-06T16:23:05.403Z,61.40
2018-11-06T16:25:34.049Z,70.93
2018-11-06T16:28:02.840Z,66.27
2018-11-06T16:30:31.572Z,61.97
2018-11-06T16:33:00.338Z,58.93
2018-11-06T16:35:29.396Z,64.23
2018-11-06T16:37:58.189Z,59.70
2018-11-06T16:40:26.872Z,74.77
2018-11-06T16:42:55.679Z,79.73
2018-11-06T16:45:24.420Z,88.57
2018-11-06T16:47:53.664Z,99.07
2018-11-06T16:50:22.956Z,81.03
2018-11-06T16:52:51.652Z,73.97
2018-11-06T16:55:20.872Z,76.63
2018-11-06T16:57:49.835Z,75.80
2018-11-06T17:00:21.338Z,82.13
2018-11-06T17:02:50.229Z,81.70
2018-11-06T17:05:19.012Z,89.67
2018-11-06T17:07:48.472Z,97.93
2018-11-06T17:10:17.890Z,89.13
2018-11-06T17:12:47.093Z,93.73
2018-11-06T17:15:18.315Z,76.43
2018-11-06T17:17:48.107Z,90.83
2018-11-06T17:20:17.118Z,80.20
2018-11-06T17:22:46.059Z,84.00
2018-11-06T17:25:16.307Z,95.40
2018-11-06T17:27:45.305Z,81.00
2018-11-06T17:30:15.319Z,78.53
2018-11-06T17:32:44.337Z,78.80
2018-11-06T17:35:15.012Z,79.80
2018-11-06T17:37:44.152Z,83.67
2018-11-06T17:40:16.209Z,76.40
2018-11-06T17:42:45.459Z,72.00
2018-11-06T17:45:19.804Z,78.33
2018-11-06T17:47:48.622Z,64.93
2018-11-06T17:50:17.818Z,69.87
2018-11-06T17:52:46.903Z,79.27
2018-11-06T17:55:17.107Z,68.43
2018-11-06T17:57:45.999Z,65.47
2018-11-06T18:00:17.847Z,64.00
2018-11-06T18:02:47.096Z,64.20
2018-11-06T18:05:16.684Z,76.73
2018-11-06T18:07:45.791Z,65.63
2018-11-06T18:10:15.915Z,71.20
2018-11-06T18:12:45.100Z,72.07
2018-11-06T18:15:13.973Z,72.47
2018-11-06T18:17:43.183Z,74.00
2018-11-06T18:20:13.112Z,78.00
2018-11-06T18:22:42.602Z,72.30
2018-11-06T18:25:12.420Z,79.87
2018-11-06T18:27:41.364Z,75.63
2018-11-06T18:30:12.646Z,81.33
2018-11-06T18:32:42.404Z,82.03
2018-11-06T18:35:12.586Z,85.83
2018-11-06T18:37:41.414Z,85.90
2018-11-06T18:40:14.009Z,92.63
2018-11-06T18:42:44.084Z,82.40
2018-11-06T18:45:13.352Z,93.67
2018-11-06T18:47:42.290Z,89.87
2018-11-06T18:50:12.665Z,94.87
2018-11-06T18:52:42.582Z,93.17
2018-11-06T18:55:11.312Z,103.27
2018-11-06T18:57:40.319Z,107.90
2018-11-06T19:00:12.643Z,104.07
2018-11-06T19:02:42.451Z,119.90
2018-11-06T19:05:12.356Z,119.70
2018-11-06T19:07:41.149Z,119.70
2018-11-06T19:10:11.561Z,127.57
2018-11-06T19:12:40.455Z,117.97
2018-11-06T19:15:12.152Z,112.67
2018-11-06T19:17:41.242Z,116.30
2018-11-06T19:20:11.020Z,124.53
2018-11-06T19:22:39.952Z,124.27
2018-11-06T19:25:09.829Z,116.33
2018-11-06T19:27:38.724Z,117.70
2018-11-06T19:30:16.195Z,127.77
2018-11-06T19:32:44.858Z,123.67
2018-11-06T19:35:14.390Z,112.43
2018-11-06T19:37:45.381Z,115.10
2018-11-06T19:40:15.884Z,110.40
2018-11-06T19:42:46.481Z,111.77
2018-11-06T19:45:16.791Z,118.33
2018-11-06T19:47:47.211Z,112.17
2018-11-06T19:50:19.061Z,107.57
2018-11-06T19:52:50.518Z,114.60
2018-11-06T19:55:20.402Z,115.70
2018-11-06T19:57:49.553Z,128.43
2018-11-06T20:00:20.954Z,115.60
2018-11-06T20:02:51.391Z,114.97
2018-11-06T20:05:20.927Z,114.53
2018-11-06T20:07:51.388Z,129.87
2018-11-06T20:10:21.955Z,124.77
2018-11-06T20:12:52.798Z,120.77
2018-11-06T20:15:22.996Z,126.17
2018-11-06T20:17:55.193Z,130.20
2018-11-06T20:20:29.530Z,140.83
2018-11-06T20:22:58.946Z,121.47
2018-11-06T20:25:28.243Z,136.57
2018-11-06T20:27:56.961Z,140.73
2018-11-06T20:30:26.636Z,131.90
2018-11-06T20:32:55.639Z,129.97
2018-11-06T20:35:24.282Z,132.93
2018-11-06T20:37:53.278Z,141.23
2018-11-06T20:40:23.414Z,133.37
2018-11-06T20:42:52.306Z,137.97
2018-11-06T20:45:21.497Z,142.13
2018-11-06T20:47:50.162Z,142.03
2018-11-06T20:50:21.836Z,144.67
2018-11-06T20:52:50.676Z,153.73
2018-11-06T20:55:19.651Z,163.93
2018-11-06T20:57:48.314Z,146.43
2018-11-06T21:00:30.266Z,144.50
2018-11-06T21:03:01.347Z,143.17
2018-11-06T21:05:30.176Z,150.80
2018-11-06T21:07:59.088Z,148.50
2018-11-06T21:10:29.548Z,152.50
2018-11-06T21:12:58.227Z,146.93
2018-11-06T21:15:27.211Z,161.63
2018-11-06T21:17:56.297Z,153.53
2018-11-06T21:20:24.942Z,158.90
2018-11-06T21:22:53.791Z,157.47
2018-11-06T21:25:24.613Z,155.43
2018-11-06T21:27:53.305Z,156.70
2018-11-06T21:30:22.431Z,153.60
2018-11-06T21:32:52.327Z,166.47
2018-11-06T21:35:21.222Z,164.20
2018-11-06T21:37:50.147Z,154.17
2018-11-06T21:40:20.435Z,158.63
2018-11-06T21:42:49.406Z,156.17
2018-11-06T21:45:18.667Z,166.30
2018-11-06T21:47:48.573Z,169.77
2018-11-06T21:50:17.921Z,158.70
2018-11-06T21:52:46.631Z,150.33
2018-11-06T21:55:16.665Z,156.73
2018-11-06T21:57:45.305Z,156.33
2018-11-06T22:00:15.675Z,150.20
2018-11-06T22:02:44.534Z,156.60
2018-11-06T22:05:14.446Z,149.30
2018-11-06T22:07:43.423Z,152.27
2018-11-06T22:10:13.459Z,143.20
2018-11-06T22:12:43.123Z,148.17
2018-11-06T22:15:12.967Z,149.93
2018-11-06T22:17:41.855Z,146.10
2018-11-06T22:20:12.691Z,150.60
2018-11-06T22:22:42.192Z,152.17
2018-11-06T22:25:11.022Z,142.27
2018-11-06T22:27:39.878Z,161.23
2018-11-06T22:30:10.624Z,141.87
2018-11-06T22:32:39.934Z,157.17
2018-11-06T22:35:10.189Z,154.80
2018-11-06T22:37:38.918Z,163.80
2018-11-06T22:40:08.428Z,143.37
2018-11-06T22:42:37.572Z,147.57
2018-11-06T22:45:08.068Z,157.50
2018-11-06T22:47:36.720Z,163.97
2018-11-06T22:50:06.872Z,141.70
2018-11-06T22:52:35.630Z,156.83
2018-11-06T22:55:04.630Z,153.43
2018-11-06T22:57:33.273Z,159.97
2018-11-06T23:00:02.073Z,171.83
2018-11-06T23:02:30.795Z,178.77
2018-11-06T23:04:59.459Z,171.33
2018-11-06T23:07:33.577Z,179.60
2018-11-06T23:10:02.256Z,179.37
2018-11-06T23:12:31.075Z,172.90
2018-11-06T23:14:59.695Z,166.73
2018-11-06T23:17:28.411Z,176.23
2018-11-06T23:19:57.088Z,183.70
2018-11-06T23:22:26.101Z,189.37
2018-11-06T23:24:55.016Z,168.73
2018-11-06T23:27:23.534Z,187.33
2018-11-06T23:29:52.316Z,183.70
2018-11-06T23:32:21.060Z,178.50
2018-11-06T23:34:49.705Z,180.00
2018-11-06T23:37:18.508Z,168.67
2018-11-06T23:39:47.179Z,176.63
2018-11-06T23:42:15.840Z,181.43
2018-11-06T23:44:44.525Z,174.20
2018-11-06T23:47:13.262Z,175.43
2018-11-06T23:49:41.944Z,168.87
2018-11-06T23:52:10.591Z,183.23
2018-11-06T23:54:39.315Z,177.23
2018-11-06T23:57:08.019Z,184.73
2018-11-06T23:59:36.784Z,165.77
